Time;durP1;ratioP1;P1;durP2;ratioP2;P2;SDS_P1;SDS_P2;PMS_P1;PMS_P2;Temp;Humidity;BMP_temperature;BMP_pressure;BME280_temperature;BME280_humidity;BME280_pressure;Samples;Min_cycle;Max_cycle;Signal;HPM_P1;HPM_P2
2022/01/28 00:00:18;;;;;;;25.75;5.97;;;5.40;99.90;;;;;;5041889;28;20052;-62
2022/01/28 00:02:54;;;;;;;24.55;4.07;;;5.50;99.90;;;;;;5036809;28;20098;-61
2022/01/28 00:05:22;;;;;;;21.20;4.40;;;5.30;99.90;;;;;;5040200;28;20115;-62
2022/01/28 00:07:52;;;;;;;14.15;3.33;;;5.00;99.90;;;;;;5040086;28;20045;-61
2022/01/28 00:10:21;;;;;;;22.38;3.45;;;4.70;99.90;;;;;;5041870;28;20141;-61
2022/01/28 00:16:20;;;;;;;12.68;2.63;;;4.40;99.90;;;;;;5040099;28;20113;-62
2022/01/28 00:37:27;;;;;;;24.63;4.50;;;4.40;99.90;;;;;;5043302;28;20159;-62
2022/01/28 00:39:53;;;;;;;31.50;6.15;;;4.50;99.90;;;;;;5045663;28;20056;-62
2022/01/28 00:42:18;;;;;;;27.75;5.32;;;4.50;99.90;;;;;;5027031;28;20045;-62
2022/01/28 00:44:44;;;;;;;31.27;5.37;;;4.60;99.90;;;;;;5045014;28;20090;-61
2022/01/28 00:47:10;;;;;;;28.25;5.57;;;4.60;99.90;;;;;;5044811;28;20304;-62
2022/01/28 00:49:36;;;;;;;20.93;5.70;;;4.70;99.90;;;;;;5045502;28;20081;-62
2022/01/28 00:52:01;;;;;;;21.70;4.17;;;4.90;99.90;;;;;;5045220;28;20422;-62
2022/01/28 00:54:27;;;;;;;27.63;4.20;;;5.00;99.90;;;;;;5045092;28;20049;-61
2022/01/28 00:56:53;;;;;;;23.90;5.43;;;5.00;99.90;;;;;;5043095;28;20131;-61
2022/01/28 00:59:19;;;;;;;27.87;7.13;;;5.10;99.90;;;;;;5045016;28;20056;-61
2022/01/28 01:01:44;;;;;;;29.53;4.47;;;5.10;99.90;;;;;;5043955;28;20307;-63
2022/01/28 01:04:11;;;;;;;25.83;4.18;;;5.00;99.90;;;;;;5044784;28;20099;-61
2022/01/28 01:06:37;;;;;;;;;;;4.90;99.90;;;;;;5044949;28;20056;-62
2022/01/28 01:09:03;;;;;;;18.20;4.30;;;4.80;99.90;;;;;;5045273;28;20024;-61
2022/01/28 01:11:29;;;;;;;21.70;4.13;;;4.80;99.90;;;;;;5042632;28;20121;-61
2022/01/28 01:13:55;;;;;;;25.08;5.63;;;4.70;99.90;;;;;;5043069;28;20057;-61
2022/01/28 01:21:39;;;;;;;20.53;3.93;;;4.70;99.90;;;;;;5023430;28;20061;-62
2022/01/28 01:24:07;;;;;;;28.15;5.22;;;4.70;99.90;;;;;;5023443;28;20057;-62
2022/01/28 01:26:37;;;;;;;21.10;4.47;;;4.70;99.90;;;;;;5039901;28;20053;-61
2022/01/28 01:29:11;;;;;;;28.23;4.93;;;4.70;99.90;;;;;;5043232;28;20053;-62
2022/01/28 01:31:40;;;;;;;29.48;5.32;;;4.80;99.90;;;;;;5022748;28;20179;-61
2022/01/28 01:34:27;;;;;;;29.67;6.05;;;4.80;99.90;;;;;;5023058;28;20057;-62
2022/01/28 01:36:52;;;;;;;28.00;5.85;;;4.80;99.90;;;;;;5029769;28;20053;-63
2022/01/28 01:39:27;;;;;;;24.83;5.30;;;4.80;99.90;;;;;;5039973;28;20045;-62
2022/01/28 01:41:59;;;;;;;30.10;5.35;;;4.80;99.90;;;;;;5044401;28;20088;-62
2022/01/28 01:52:37;;;;;;;20.15;4.65;;;4.90;99.90;;;;;;5042668;28;20061;-62
2022/01/28 01:55:03;;;;;;;24.48;4.78;;;4.90;99.90;;;;;;5009725;28;20045;-62
2022/01/28 01:57:30;;;;;;;25.65;5.40;;;4.90;99.90;;;;;;5043468;28;20096;-62
2022/01/28 01:59:56;;;;;;;24.38;4.55;;;5.00;99.90;;;;;;5025764;28;20061;-62
2022/01/28 02:02:21;;;;;;;28.10;5.03;;;5.00;99.90;;;;;;5043829;28;20045;-62
2022/01/28 02:04:47;;;;;;;27.27;5.57;;;5.00;99.90;;;;;;5043844;28;20339;-62
2022/01/28 02:07:15;;;;;;;22.67;4.77;;;5.10;99.90;;;;;;5043395;28;20034;-62
2022/01/28 02:09:41;;;;;;;32.42;5.60;;;5.10;99.90;;;;;;5042294;28;20065;-62
2022/01/28 02:12:07;;;;;;;31.45;5.50;;;5.10;99.90;;;;;;5041922;28;20508;-62
2022/01/28 02:14:33;;;;;;;25.70;5.30;;;5.10;99.90;;;;;;5042093;28;20049;-62
2022/01/28 02:16:59;;;;;;;26.10;6.03;;;5.20;99.90;;;;;;5042847;28;20049;-62
2022/01/28 02:19:27;;;;;;;24.17;4.35;;;5.20;99.90;;;;;;5041881;28;20103;-62
2022/01/28 02:21:53;;;;;;;17.70;4.82;;;5.30;99.90;;;;;;5041935;28;20084;-62
2022/01/28 02:24:29;;;;;;;21.42;4.03;;;5.40;99.90;;;;;;5041714;28;20054;-62
2022/01/28 02:26:55;;;;;;;26.17;5.47;;;5.40;99.90;;;;;;5041809;28;20068;-62
2022/01/28 02:29:32;;;;;;;30.03;4.77;;;5.50;99.90;;;;;;5042776;28;20064;-62
2022/01/28 02:32:00;;;;;;;27.38;4.80;;;5.50;99.90;;;;;;5043124;28;20045;-62
2022/01/28 02:34:26;;;;;;;27.75;5.68;;;5.50;99.90;;;;;;5041417;28;20084;-62
2022/01/28 02:36:52;;;;;;;30.00;6.22;;;5.40;99.90;;;;;;5058254;28;20103;-62
2022/01/28 02:39:18;;;;;;;35.30;6.40;;;5.40;99.90;;;;;;5041287;28;20037;-61
2022/01/28 02:41:48;;;;;;;26.15;5.72;;;5.40;99.90;;;;;;5041667;28;20080;-61
2022/01/28 02:46:54;;;;;;;29.40;6.05;;;5.30;99.90;;;;;;5041986;28;20061;-62
2022/01/28 02:49:21;;;;;;;33.95;6.28;;;5.30;99.90;;;;;;5041031;28;20041;-62
2022/01/28 02:51:47;;;;;;;32.30;6.07;;;5.30;99.90;;;;;;5041234;28;20164;-62
2022/01/28 02:54:16;;;;;;;33.28;7.55;;;5.30;99.90;;;;;;5041131;28;20053;-62
2022/01/28 02:56:50;;;;;;;33.35;7.28;;;5.30;99.90;;;;;;5042694;28;20180;-61
2022/01/28 02:59:16;;;;;;;38.97;6.78;;;5.30;99.90;;;;;;5041389;28;20117;-61
2022/01/28 03:01:42;;;;;;;41.10;6.72;;;5.30;99.90;;;;;;5024753;28;20049;-61
2022/01/28 03:04:11;;;;;;;27.23;6.57;;;5.30;99.90;;;;;;5042438;28;20445;-61
2022/01/28 03:06:36;;;;;;;31.15;5.13;;;5.30;99.90;;;;;;5026008;28;20132;-62
2022/01/28 03:09:13;;;;;;;29.87;7.27;;;5.40;99.90;;;;;;5041146;28;20156;-62
2022/01/28 03:16:40;;;;;;;32.42;7.22;;;5.40;99.90;;;;;;5041886;28;20060;-61
2022/01/28 03:19:21;;;;;;;26.30;5.10;;;5.30;99.90;;;;;;5042154;28;20048;-61
2022/01/28 03:21:54;;;;;;;29.02;5.60;;;5.40;99.90;;;;;;5021061;28;20076;-62
2022/01/28 03:24:21;;;;;;;29.88;5.32;;;5.40;99.90;;;;;;5028481;28;20053;-61
2022/01/28 03:26:50;;;;;;;24.30;5.45;;;5.50;99.90;;;;;;5040701;28;20052;-62
2022/01/28 03:29:16;;;;;;;23.50;6.38;;;5.50;99.90;;;;;;5041977;28;20537;-62
2022/01/28 03:31:42;;;;;;;26.63;5.27;;;5.50;99.90;;;;;;5040458;28;20067;-62
2022/01/28 03:34:08;;;;;;;29.40;5.13;;;5.50;99.90;;;;;;5040528;28;20288;-61
2022/01/28 03:36:33;;;;;;;25.25;4.78;;;5.50;99.90;;;;;;5057157;28;20268;-62
2022/01/28 03:38:59;;;;;;;19.13;4.05;;;5.50;99.90;;;;;;5042238;28;20081;-62
2022/01/28 03:41:25;;;;;;;20.60;4.43;;;5.50;99.90;;;;;;5040208;28;20119;-61
2022/01/28 03:43:57;;;;;;;21.17;5.10;;;5.50;99.90;;;;;;5040319;28;20076;-61
2022/01/28 03:46:25;;;;;;;29.13;4.82;;;5.50;99.90;;;;;;5039860;28;20081;-61
2022/01/28 03:48:51;;;;;;;30.60;5.28;;;5.50;99.90;;;;;;5041855;28;20041;-61
2022/01/28 03:51:17;;;;;;;24.58;4.07;;;5.50;99.90;;;;;;5042011;28;20149;-61
2022/01/28 03:53:43;;;;;;;26.70;6.27;;;5.50;99.90;;;;;;5023724;28;20041;-62
2022/01/28 03:56:08;;;;;;;26.92;5.75;;;5.50;99.90;;;;;;5041842;28;20105;-61
2022/01/28 03:58:34;;;;;;;22.70;5.33;;;5.50;99.90;;;;;;5040374;28;20126;-61
2022/01/28 04:01:00;;;;;;;30.37;5.03;;;5.50;99.90;;;;;;5046144;28;20057;-62
2022/01/28 04:13:54;;;;;;;23.58;4.97;;;5.60;99.90;;;;;;5045605;28;20469;-62
2022/01/28 04:18:46;;;;;;;24.80;4.70;;;5.60;99.90;;;;;;5044632;28;20049;-62
2022/01/28 04:21:11;;;;;;;19.73;5.13;;;5.50;99.90;;;;;;5045190;28;20045;-62
2022/01/28 04:23:37;;;;;;;27.70;4.80;;;5.50;99.90;;;;;;5027954;28;20049;-61
2022/01/28 04:26:03;;;;;;;19.30;4.28;;;5.60;99.90;;;;;;5043288;28;20152;-62
2022/01/28 04:28:29;;;;;;;24.08;4.80;;;5.60;99.90;;;;;;5043614;28;20084;-61
2022/01/28 04:30:55;;;;;;;24.42;4.60;;;5.60;99.90;;;;;;5043881;28;20037;-62
2022/01/28 04:33:21;;;;;;;21.73;4.28;;;5.60;99.90;;;;;;5044189;28;20548;-62
2022/01/28 04:35:50;;;;;;;24.52;4.47;;;5.70;99.90;;;;;;5042979;28;20409;-62
2022/01/28 04:41:09;;;;;;;;;;;;;;;;;;;;;
2022/01/28 04:43:32;;;;;;;19.65;4.65;;;5.70;99.90;;;;;;5043966;28;20108;-62
2022/01/28 04:46:12;;;;;;;26.60;4.22;;;5.70;99.90;;;;;;5044685;28;20045;-62
2022/01/28 04:51:18;;;;;;;31.42;5.30;;;5.70;99.90;;;;;;5052713;28;20052;-62
2022/01/28 04:54:05;;;;;;;;;;;;;;;;;;;;;
2022/01/28 05:04:42;;;;;;;27.63;4.90;;;5.60;99.90;;;;;;5026050;28;20065;-62
2022/01/28 05:15:41;;;;;;;30.30;6.45;;;5.30;99.90;;;;;;5025235;28;20119;-62
2022/01/28 05:26:23;;;;;;;29.52;4.90;;;5.10;99.90;;;;;;5024834;28;20076;-63
2022/01/28 05:28:48;;;;;;;30.65;5.22;;;5.10;99.90;;;;;;5023852;28;20054;-62
2022/01/28 05:31:15;;;;;;;;;;;5.10;99.90;;;;;;5042377;28;20084;-61
2022/01/28 05:33:41;;;;;;;27.83;5.53;;;5.00;99.90;;;;;;5042929;28;19997;-62
2022/01/28 05:36:07;;;;;;;28.50;5.18;;;5.10;99.90;;;;;;5042540;28;20071;-62
2022/01/28 05:38:32;;;;;;;31.85;6.95;;;5.10;99.90;;;;;;5057319;28;20053;-62
2022/01/28 05:40:58;;;;;;;34.30;6.33;;;5.20;99.90;;;;;;5044453;28;20063;-62
2022/01/28 05:43:24;;;;;;;27.53;5.27;;;5.20;99.90;;;;;;5042424;28;20053;-62
2022/01/28 05:45:49;;;;;;;20.50;4.33;;;5.20;99.90;;;;;;5042567;28;20323;-62
2022/01/28 05:48:16;;;;;;;22.00;5.72;;;5.20;99.90;;;;;;5042288;28;20128;-62
2022/01/28 05:50:42;;;;;;;20.75;4.47;;;5.20;99.90;;;;;;5042305;28;20107;-62
2022/01/28 05:53:08;;;;;;;31.93;6.00;;;5.20;99.90;;;;;;5044043;28;20038;-61
2022/01/28 05:55:35;;;;;;;35.50;6.70;;;5.20;99.90;;;;;;5044164;28;20666;-62
2022/01/28 05:58:00;;;;;;;30.92;5.72;;;5.30;99.90;;;;;;5043504;28;20392;-62
2022/01/28 06:00:26;;;;;;;24.75;4.78;;;5.30;99.90;;;;;;5043171;28;20083;-62
2022/01/28 06:02:52;;;;;;;25.37;5.53;;;5.20;99.90;;;;;;5025628;28;20090;-61
2022/01/28 06:05:18;;;;;;;26.60;5.93;;;5.30;99.90;;;;;;5043959;28;20369;-62
2022/01/28 06:07:44;;;;;;;31.77;5.25;;;5.30;99.90;;;;;;5041764;28;20045;-62
2022/01/28 06:10:11;;;;;;;24.42;4.82;;;5.30;99.90;;;;;;5043810;28;20045;-62
2022/01/28 06:12:47;;;;;;;34.65;5.75;;;5.40;99.90;;;;;;5024857;28;20046;-62
2022/01/28 06:15:14;;;;;;;43.08;6.05;;;5.40;99.90;;;;;;5040275;28;20080;-62
2022/01/28 06:17:40;;;;;;;34.30;5.60;;;5.50;99.90;;;;;;5041285;28;20045;-62
2022/01/28 06:20:07;;;;;;;27.50;5.85;;;5.50;99.90;;;;;;5043694;28;20044;-63
2022/01/28 06:22:38;;;;;;;27.42;5.40;;;5.50;99.90;;;;;;5041394;28;20128;-62
2022/01/28 06:25:04;;;;;;;37.22;6.13;;;5.40;99.90;;;;;;5042085;28;20066;-62
2022/01/28 06:27:30;;;;;;;39.20;6.03;;;5.50;99.90;;;;;;5041580;28;20107;-62
2022/01/28 06:29:56;;;;;;;34.17;6.35;;;5.40;99.90;;;;;;5043650;28;20049;-62
2022/01/28 06:32:22;;;;;;;34.93;7.00;;;5.40;99.90;;;;;;5042941;28;20482;-61
2022/01/28 06:34:47;;;;;;;28.83;5.47;;;5.40;99.90;;;;;;5052116;28;20037;-62
2022/01/28 06:37:13;;;;;;;38.27;6.07;;;5.30;99.90;;;;;;5041933;28;20121;-62
2022/01/28 06:39:39;;;;;;;33.03;6.47;;;5.30;99.90;;;;;;5042945;28;20038;-61
2022/01/28 06:42:06;;;;;;;40.60;8.10;;;5.20;99.90;;;;;;5041152;28;20304;-62
2022/01/28 06:44:33;;;;;;;31.80;5.90;;;5.20;99.90;;;;;;5028909;28;20090;-61
2022/01/28 06:46:58;;;;;;;34.72;6.47;;;5.20;99.90;;;;;;5042647;28;20042;-61
2022/01/28 06:49:24;;;;;;;31.67;5.77;;;5.10;99.90;;;;;;5042918;28;20060;-61
2022/01/28 06:51:50;;;;;;;26.83;5.33;;;5.20;99.90;;;;;;5041371;28;20300;-61
2022/01/28 06:54:16;;;;;;;29.90;5.90;;;5.10;99.90;;;;;;5041126;28;20171;-61
2022/01/28 06:56:41;;;;;;;29.48;4.72;;;5.10;99.90;;;;;;5042431;28;20053;-62
2022/01/28 06:59:07;;;;;;;22.13;4.77;;;5.10;99.90;;;;;;5041240;28;20048;-61
2022/01/28 07:01:33;;;;;;;22.90;5.20;;;5.10;99.90;;;;;;5040619;28;20520;-61
2022/01/28 07:04:00;;;;;;;20.77;5.47;;;5.10;99.90;;;;;;5042687;28;20304;-61
2022/01/28 07:06:26;;;;;;;30.45;5.47;;;5.10;99.90;;;;;;5040982;28;20053;-61
2022/01/28 07:08:52;;;;;;;32.08;8.27;;;5.10;99.90;;;;;;5020394;28;20168;-61
2022/01/28 07:11:18;;;;;;;22.42;4.20;;;5.10;99.90;;;;;;5020766;28;20212;-61
2022/01/28 07:13:44;;;;;;;24.05;5.20;;;5.10;99.90;;;;;;5038188;28;20131;-61
2022/01/28 07:16:10;;;;;;;24.52;4.72;;;5.10;99.90;;;;;;5023603;28;20057;-61
2022/01/28 07:18:35;;;;;;;22.97;6.23;;;5.10;99.90;;;;;;5041742;28;20037;-61
2022/01/28 07:21:01;;;;;;;22.45;4.45;;;5.10;99.90;;;;;;5042515;28;20058;-61
2022/01/28 07:23:27;;;;;;;28.08;4.97;;;5.10;99.90;;;;;;5043447;28;20057;-61
2022/01/28 07:25:53;;;;;;;25.30;4.85;;;5.10;99.90;;;;;;5036718;28;20102;-61
2022/01/28 07:28:22;;;;;;;26.52;5.25;;;5.10;99.90;;;;;;5020582;28;20113;-61
2022/01/28 07:30:48;;;;;;;23.13;5.00;;;5.10;99.90;;;;;;5027356;28;20136;-61
2022/01/28 07:33:13;;;;;;;33.30;5.40;;;5.10;99.90;;;;;;5042407;28;20038;-60
2022/01/28 07:35:39;;;;;;;26.98;5.60;;;5.00;99.90;;;;;;5040279;28;20504;-61
2022/01/28 07:38:05;;;;;;;33.90;5.47;;;5.00;99.90;;;;;;5049996;28;20033;-61
2022/01/28 07:40:30;;;;;;;30.20;6.03;;;5.00;99.90;;;;;;5022626;28;20663;-61
2022/01/28 07:42:56;;;;;;;22.17;4.60;;;5.00;99.90;;;;;;5042125;28;20049;-62
2022/01/28 07:45:22;;;;;;;32.57;5.43;;;5.10;99.90;;;;;;5039646;28;20057;-62
2022/01/28 07:47:48;;;;;;;27.80;5.17;;;5.10;99.90;;;;;;5039569;28;20045;-61
2022/01/28 07:50:15;;;;;;;30.30;5.40;;;5.10;99.90;;;;;;5040204;28;20304;-60
2022/01/28 07:52:41;;;;;;;31.02;6.05;;;5.10;99.90;;;;;;5040797;28;20397;-61
2022/01/28 07:55:10;;;;;;;27.27;6.55;;;5.10;99.90;;;;;;5037305;28;20057;-61
2022/01/28 07:57:35;;;;;;;34.42;5.93;;;5.10;99.90;;;;;;5039338;28;20052;-61
2022/01/28 08:00:01;;;;;;;31.70;5.87;;;5.10;99.90;;;;;;5041932;28;20041;-61
2022/01/28 08:02:27;;;;;;;33.85;5.15;;;5.10;99.90;;;;;;5040065;28;20051;-62
2022/01/28 08:04:54;;;;;;;31.17;5.32;;;5.10;99.90;;;;;;5041759;28;20073;-61
2022/01/28 08:07:21;;;;;;;38.97;6.47;;;5.10;99.90;;;;;;5039159;28;20452;-61
2022/01/28 08:09:47;;;;;;;31.20;6.03;;;5.10;99.90;;;;;;5040275;28;20045;-61
2022/01/28 08:12:13;;;;;;;34.28;6.38;;;5.00;99.90;;;;;;5056753;28;20075;-62
2022/01/28 08:14:39;;;;;;;29.50;5.70;;;5.00;99.90;;;;;;5042237;28;20033;-61
2022/01/28 08:17:04;;;;;;;25.90;5.03;;;5.00;99.90;;;;;;5039642;28;20339;-61
2022/01/28 08:19:30;;;;;;;27.60;5.10;;;5.00;99.90;;;;;;5023473;28;20045;-61
2022/01/28 08:21:56;;;;;;;26.20;4.68;;;5.00;99.90;;;;;;5040086;28;20056;-61
2022/01/28 08:24:22;;;;;;;30.77;5.43;;;5.10;99.90;;;;;;5039702;28;20057;-61
2022/01/28 08:26:47;;;;;;;30.02;6.28;;;5.00;99.90;;;;;;5056835;28;20323;-62
2022/01/28 08:29:13;;;;;;;40.73;5.97;;;5.00;99.90;;;;;;5039828;28;20045;-63
2022/01/28 08:31:39;;;;;;;23.55;5.22;;;5.00;99.90;;;;;;5041411;28;20033;-61
2022/01/28 08:34:05;;;;;;;20.50;5.03;;;5.00;99.90;;;;;;5040888;28;20053;-61
2022/01/28 08:36:30;;;;;;;26.00;5.00;;;5.10;99.90;;;;;;5021883;28;20116;-61
2022/01/28 08:38:56;;;;;;;31.70;5.83;;;5.00;99.90;;;;;;5035160;28;20288;-60
2022/01/28 08:41:23;;;;;;;32.30;5.45;;;5.00;99.90;;;;;;5040000;28;20096;-61
2022/01/28 08:43:49;;;;;;;20.80;4.75;;;5.00;99.90;;;;;;5040261;28;20393;-60
2022/01/28 08:46:15;;;;;;;25.10;4.90;;;5.00;99.90;;;;;;5041230;28;20378;-60
2022/01/28 08:48:41;;;;;;;33.78;5.70;;;5.00;99.90;;;;;;5023004;28;20042;-61
2022/01/28 08:51:06;;;;;;;31.70;5.00;;;5.00;99.90;;;;;;5039818;28;20045;-62
2022/01/28 08:53:33;;;;;;;23.63;5.23;;;5.00;99.90;;;;;;5043376;28;20083;-62
2022/01/28 08:55:59;;;;;;;27.17;5.35;;;5.10;99.90;;;;;;5020166;28;20050;-62
2022/01/28 08:58:25;;;;;;;32.95;5.35;;;5.10;99.90;;;;;;5037398;28;20057;-62
2022/01/28 09:00:52;;;;;;;26.17;4.95;;;5.10;99.90;;;;;;5044293;28;20091;-62
2022/01/28 09:03:19;;;;;;;24.27;5.50;;;5.10;99.90;;;;;;5044993;28;20037;-62
2022/01/28 09:05:45;;;;;;;41.85;6.78;;;5.10;99.90;;;;;;5045028;28;20354;-62
2022/01/28 09:08:11;;;;;;;33.28;5.95;;;5.10;99.90;;;;;;5054131;28;20045;-62
2022/01/28 09:10:42;;;;;;;29.23;5.18;;;5.20;99.90;;;;;;5044321;28;20041;-62
2022/01/28 09:15:39;;;;;;;31.80;6.30;;;5.20;99.90;;;;;;5043118;28;20099;-61
2022/01/28 09:18:05;;;;;;;27.35;5.03;;;5.30;99.90;;;;;;5052864;28;20192;-61
2022/01/28 09:20:33;;;;;;;26.27;5.85;;;5.30;99.90;;;;;;5034021;28;20049;-61
2022/01/28 09:22:59;;;;;;;24.38;5.88;;;5.30;99.90;;;;;;5042958;28;20072;-61
2022/01/28 09:25:25;;;;;;;;;;;5.40;99.90;;;;;;5043301;28;20068;-61
2022/01/28 09:27:51;;;;;;;31.65;5.63;;;5.30;99.90;;;;;;5043037;28;19940;-61
2022/01/28 09:30:17;;;;;;;34.25;5.68;;;5.50;99.90;;;;;;5042585;28;20045;-61
2022/01/28 09:32:43;;;;;;;37.85;6.00;;;5.60;99.90;;;;;;5042709;28;20053;-61
2022/01/28 09:35:09;;;;;;;29.17;6.38;;;5.70;99.90;;;;;;5044456;28;20075;-61
2022/01/28 09:37:35;;;;;;;28.80;5.30;;;5.70;99.90;;;;;;5044386;28;20509;-61
2022/01/28 09:40:06;;;;;;;27.88;5.43;;;5.80;99.90;;;;;;5042282;28;20120;-62
2022/01/28 09:42:37;;;;;;;29.58;6.13;;;5.90;99.90;;;;;;5042522;28;20124;-61
2022/01/28 09:45:04;;;;;;;32.85;6.85;;;5.90;99.90;;;;;;5056377;28;20125;-61
2022/01/28 09:47:31;;;;;;;26.75;5.68;;;6.00;99.90;;;;;;5025532;28;20500;-61
2022/01/28 09:49:58;;;;;;;36.45;6.03;;;6.00;99.90;;;;;;5042375;28;20146;-62
2022/01/28 09:52:23;;;;;;;30.48;5.53;;;6.10;99.90;;;;;;5042152;28;20145;-62
2022/01/28 09:54:49;;;;;;;33.38;8.27;;;6.20;99.90;;;;;;5043616;28;20077;-62
2022/01/28 09:57:19;;;;;;;28.33;5.27;;;6.20;99.90;;;;;;5026082;28;20056;-62
2022/01/28 09:59:46;;;;;;;31.73;5.70;;;6.20;99.90;;;;;;5042469;28;20098;-62
2022/01/28 10:02:12;;;;;;;;;;;6.20;99.90;;;;;;5043467;28;20086;-62
2022/01/28 10:04:38;;;;;;;41.58;5.50;;;6.20;99.90;;;;;;5042395;28;19921;-63
2022/01/28 10:07:18;;;;;;;31.77;5.45;;;6.30;99.90;;;;;;5043753;28;20046;-63
2022/01/28 10:09:55;;;;;;;29.92;5.35;;;6.30;99.90;;;;;;5043208;28;20045;-62
2022/01/28 10:12:29;;;;;;;27.30;6.00;;;6.30;99.90;;;;;;5041903;28;20060;-62
2022/01/28 10:15:19;;;;;;;32.13;6.07;;;6.30;99.90;;;;;;5043425;28;20087;-62
2022/01/28 10:17:58;;;;;;;31.17;5.65;;;6.40;99.90;;;;;;5058321;28;20069;-62
2022/01/28 10:20:25;;;;;;;25.67;4.53;;;6.40;99.90;;;;;;5041648;28;20064;-62
2022/01/28 10:23:01;;;;;;;27.83;4.85;;;6.50;99.90;;;;;;5041682;28;20041;-62
2022/01/28 10:25:32;;;;;;;27.08;5.30;;;6.50;99.90;;;;;;5043217;28;20058;-62
2022/01/28 10:28:07;;;;;;;33.45;5.75;;;6.50;99.90;;;;;;5043283;28;20141;-62
2022/01/28 10:30:43;;;;;;;29.83;6.22;;;6.50;99.90;;;;;;5041365;28;20076;-62
2022/01/28 10:33:23;;;;;;;26.90;4.90;;;6.50;99.90;;;;;;5041699;28;20496;-62
2022/01/28 10:35:57;;;;;;;22.45;4.88;;;6.60;99.90;;;;;;5043191;28;20057;-62
2022/01/28 10:38:33;;;;;;;29.05;5.38;;;6.60;99.90;;;;;;5041616;28;20060;-62
2022/01/28 10:41:16;;;;;;;24.65;5.07;;;6.60;99.90;;;;;;5043094;28;20033;-66
2022/01/28 10:43:48;;;;;;;24.67;5.35;;;6.70;99.90;;;;;;5041543;28;20053;-62
2022/01/28 10:46:33;;;;;;;27.98;4.82;;;6.70;99.90;;;;;;5041198;28;20033;-63
2022/01/28 10:49:02;;;;;;;29.30;5.47;;;6.70;99.90;;;;;;5042855;28;20120;-63
2022/01/28 10:51:49;;;;;;;43.17;6.55;;;6.80;99.90;;;;;;5041160;28;20072;-62
2022/01/28 10:54:20;;;;;;;29.88;5.97;;;6.80;99.90;;;;;;5041206;28;20080;-62
2022/01/28 10:56:56;;;;;;;31.40;5.57;;;6.80;99.90;;;;;;5057675;28;20053;-62
2022/01/28 10:59:29;;;;;;;25.35;6.15;;;6.80;99.90;;;;;;5042915;28;20060;-62
2022/01/28 11:01:55;;;;;;;34.30;5.53;;;6.80;99.90;;;;;;5040636;28;20095;-62
2022/01/28 11:04:22;;;;;;;33.05;6.32;;;6.80;99.90;;;;;;5042810;28;20037;-63
2022/01/28 11:06:49;;;;;;;28.70;5.53;;;6.80;99.90;;;;;;5040942;28;20096;-63
2022/01/28 11:09:17;;;;;;;39.28;6.40;;;6.80;99.90;;;;;;5021073;28;20054;-62
2022/01/28 11:11:43;;;;;;;24.58;4.70;;;6.90;99.90;;;;;;5021681;28;20061;-60
2022/01/28 11:14:10;;;;;;;28.63;5.53;;;6.90;99.90;;;;;;5042456;28;20041;-60
2022/01/28 11:16:36;;;;;;;28.17;5.82;;;6.90;99.90;;;;;;5041825;28;20137;-59
2022/01/28 11:19:04;;;;;;;24.40;5.47;;;6.90;99.90;;;;;;5039381;28;20052;-60
2022/01/28 11:21:44;;;;;;;25.85;5.18;;;6.90;99.90;;;;;;5021775;28;20085;-60
2022/01/28 11:24:11;;;;;;;33.70;5.28;;;6.90;99.90;;;;;;5042122;28;20068;-60
2022/01/28 11:26:39;;;;;;;36.05;7.93;;;6.90;99.90;;;;;;5040284;28;20057;-62
2022/01/28 11:29:31;;;;;;;24.80;5.10;;;6.90;99.90;;;;;;5040783;28;20048;-61
2022/01/28 11:32:09;;;;;;;32.50;4.97;;;6.80;99.90;;;;;;5033840;28;20103;-61
2022/01/28 11:34:36;;;;;;;33.20;6.35;;;6.80;99.90;;;;;;5040454;28;20138;-61
2022/01/28 11:37:14;;;;;;;20.60;4.70;;;6.70;99.90;;;;;;5041789;28;20091;-61
2022/01/28 11:39:45;;;;;;;29.20;6.10;;;6.60;99.90;;;;;;5040328;28;20084;-61
2022/01/28 11:42:18;;;;;;;27.23;7.20;;;6.60;99.90;;;;;;5040455;28;20057;-61
2022/01/28 11:45:00;;;;;;;26.95;5.65;;;6.60;99.90;;;;;;5040404;28;20351;-60
2022/01/28 11:47:36;;;;;;;25.33;4.80;;;6.60;99.90;;;;;;5039412;28;20475;-62
2022/01/28 11:50:14;;;;;;;34.13;5.82;;;6.60;99.90;;;;;;5040362;28;20045;-61
2022/01/28 11:52:43;;;;;;;26.08;4.90;;;6.60;99.90;;;;;;5039972;28;20051;-61
2022/01/28 11:55:17;;;;;;;28.35;5.05;;;6.70;99.90;;;;;;5041908;28;20049;-61
2022/01/28 11:57:53;;;;;;;26.83;5.20;;;6.70;99.90;;;;;;5040262;28;20056;-61
2022/01/28 12:00:23;;;;;;;27.05;5.50;;;6.70;99.90;;;;;;5042051;28;20159;-61
2022/01/28 12:02:51;;;;;;;32.05;5.32;;;6.80;99.90;;;;;;5027936;28;20045;-61
2022/01/28 12:05:29;;;;;;;25.27;5.13;;;6.90;99.90;;;;;;5042255;28;20041;-61
2022/01/28 12:07:56;;;;;;;29.80;4.43;;;7.00;99.90;;;;;;5022360;28;20100;-60
2022/01/28 12:10:27;;;;;;;27.42;4.28;;;7.10;99.90;;;;;;5039885;28;20085;-61
2022/01/28 12:13:00;;;;;;;27.70;4.93;;;7.10;99.90;;;;;;5040030;28;20059;-61
2022/01/28 12:16:03;;;;;;;34.17;6.85;;;7.10;99.90;;;;;;5040135;28;20053;-61
2022/01/28 12:18:48;;;;;;;24.10;4.75;;;7.10;99.90;;;;;;5042740;28;20058;-61
2022/01/28 12:21:37;;;;;;;23.63;5.93;;;7.10;99.90;;;;;;5057234;28;20098;-62
2022/01/28 12:24:22;;;;;;;34.75;4.47;;;7.10;99.90;;;;;;5041215;28;20056;-60
2022/01/28 12:27:05;;;;;;;26.80;4.43;;;7.20;99.90;;;;;;5041815;28;20407;-61
2022/01/28 12:29:44;;;;;;;23.50;4.47;;;7.20;99.90;;;;;;5041772;28;20057;-61
2022/01/28 12:32:11;;;;;;;24.08;4.68;;;7.20;99.90;;;;;;5038104;28;20089;-61
2022/01/28 12:34:43;;;;;;;20.05;4.55;;;7.30;99.90;;;;;;5035374;28;20049;-61
2022/01/28 12:37:09;;;;;;;39.80;4.68;;;7.20;99.90;;;;;;5043738;28;20124;-60
2022/01/28 12:39:39;;;;;;;24.15;4.25;;;7.20;99.90;;;;;;5044027;28;20038;-60
2022/01/28 12:42:21;;;;;;;28.45;6.00;;;7.10;99.90;;;;;;5045207;28;20041;-61
2022/01/28 12:44:55;;;;;;;25.70;4.65;;;7.10;99.90;;;;;;5032580;28;20089;-61
2022/01/28 12:47:22;;;;;;;26.50;4.93;;;7.10;99.90;;;;;;5044950;28;20053;-60
2022/01/28 12:49:56;;;;;;;20.15;4.10;;;7.10;99.90;;;;;;5045448;28;20049;-60
2022/01/28 12:52:22;;;;;;;19.50;5.05;;;7.10;99.90;;;;;;5027134;28;20041;-61
2022/01/28 12:54:48;;;;;;;19.67;4.03;;;7.10;99.90;;;;;;5060259;28;20061;-60
2022/01/28 12:57:19;;;;;;;23.13;4.13;;;7.20;99.90;;;;;;5045143;28;20098;-60
2022/01/28 12:59:47;;;;;;;21.05;4.25;;;7.20;99.90;;;;;;5045130;28;20442;-60
2022/01/28 13:02:14;;;;;;;29.23;4.65;;;7.20;99.90;;;;;;5043431;28;20045;-61
2022/01/28 13:09:56;;;;;;;18.05;4.63;;;7.40;99.90;;;;;;5045125;28;20041;-60
2022/01/28 13:12:32;;;;;;;22.02;4.22;;;7.30;99.90;;;;;;5043229;28;20080;-61
2022/01/28 13:15:10;;;;;;;15.00;3.65;;;7.30;99.90;;;;;;5045016;28;20079;-60
2022/01/28 13:17:37;;;;;;;25.63;4.53;;;7.20;99.90;;;;;;5045954;28;20076;-61
2022/01/28 13:20:11;;;;;;;20.40;4.03;;;7.30;99.90;;;;;;5025080;28;20046;-61
2022/01/28 13:22:39;;;;;;;21.17;3.90;;;7.30;99.90;;;;;;5023275;28;20065;-61
2022/01/28 13:25:23;;;;;;;22.67;3.60;;;7.20;99.90;;;;;;5037924;28;20057;-61
2022/01/28 13:27:55;;;;;;;20.38;4.22;;;7.20;99.90;;;;;;5044426;28;20060;-61
2022/01/28 13:30:21;;;;;;;19.73;3.72;;;7.20;99.90;;;;;;5044739;28;20120;-61
2022/01/28 13:32:49;;;;;;;25.67;5.22;;;7.20;99.90;;;;;;5042705;28;20123;-61
2022/01/28 13:35:23;;;;;;;29.08;4.50;;;7.20;99.90;;;;;;5044582;28;20060;-61
2022/01/28 13:38:00;;;;;;;25.70;4.68;;;7.10;99.90;;;;;;5044254;28;20441;-61
2022/01/28 13:40:29;;;;;;;22.70;5.30;;;7.10;99.90;;;;;;5042621;28;20464;-61
2022/01/28 13:43:16;;;;;;;24.27;4.50;;;7.10;99.90;;;;;;5043508;28;20404;-61
2022/01/28 13:45:42;;;;;;;23.70;4.82;;;7.10;99.90;;;;;;5044324;28;20133;-61
2022/01/28 13:48:19;;;;;;;24.00;4.13;;;7.10;99.90;;;;;;5039183;28;20050;-61
2022/01/28 13:50:49;;;;;;;21.35;3.95;;;7.10;99.90;;;;;;5032250;28;20049;-61
2022/01/28 13:55:48;;;;;;;20.80;4.63;;;7.20;99.90;;;;;;5042365;28;20126;-60
2022/01/28 13:58:14;;;;;;;23.88;4.78;;;7.20;99.90;;;;;;5043456;28;20057;-59
2022/01/28 14:00:46;;;;;;;18.02;4.40;;;7.30;99.90;;;;;;5043910;28;20080;-59
2022/01/28 14:03:48;;;;;;;23.00;4.25;;;7.20;99.90;;;;;;5043767;28;20056;-59
2022/01/28 14:06:22;;;;;;;22.50;4.40;;;7.20;99.90;;;;;;5054572;28;20116;-59
2022/01/28 14:08:54;;;;;;;17.10;4.60;;;7.20;99.90;;;;;;5062822;28;20052;-59
2022/01/28 14:11:22;;;;;;;20.25;4.20;;;7.20;99.90;;;;;;5054460;28;20056;-59
2022/01/28 14:14:19;;;;;;;18.15;3.55;;;7.20;99.90;;;;;;5066710;28;20105;-59
2022/01/28 14:17:04;;;;;;;19.70;4.13;;;7.20;99.90;;;;;;5024268;28;20121;-59
2022/01/28 14:19:35;;;;;;;18.52;4.40;;;7.20;99.90;;;;;;5067340;28;20488;-59
2022/01/28 14:22:01;;;;;;;24.65;4.10;;;7.20;99.90;;;;;;5081139;28;20163;-59
2022/01/28 14:24:32;;;;;;;17.10;4.22;;;7.20;99.90;;;;;;5067206;28;20138;-59
2022/01/28 14:32:15;;;;;;;23.90;3.60;;;7.20;99.90;;;;;;5062320;28;20056;-61
2022/01/28 14:34:42;;;;;;;20.00;4.40;;;7.20;99.90;;;;;;5044058;28;20131;-61
2022/01/28 14:37:08;;;;;;;22.45;5.43;;;7.20;99.90;;;;;;5061680;28;20113;-62
2022/01/28 14:39:35;;;;;;;19.05;4.63;;;7.20;99.90;;;;;;5061120;28;20099;-61
2022/01/28 14:42:03;;;;;;;22.80;3.88;;;7.20;99.90;;;;;;5058990;28;20049;-61